createdAt,value
2022-12-03T00:01:45.997Z,99788.19
2022-12-03T00:11:47.354Z,99775.75
2022-12-03T00:21:48.752Z,99775.91
2022-12-03T00:31:50.206Z,99759.78
2022-12-03T00:41:51.581Z,99759.97
2022-12-03T00:51:52.961Z,99763.84
2022-12-03T01:01:54.494Z,99759.19
2022-12-03T01:11:55.984Z,99765.59
2022-12-03T01:21:57.396Z,99767.28
2022-12-03T01:32:16.598Z,99762.81
2022-12-03T01:42:38.643Z,99774.19
2022-12-03T01:52:40.026Z,99775.19
2022-12-03T02:02:41.424Z,99770.72
2022-12-03T02:13:08.981Z,99765.19
2022-12-03T02:23:23.808Z,99766.03
2022-12-03T02:33:25.219Z,99751.16
2022-12-03T02:43:26.788Z,99754.47
2022-12-03T02:53:33.401Z,99746.16
2022-12-03T03:03:34.763Z,99735.47
2022-12-03T03:13:36.356Z,99732.78
2022-12-03T03:23:37.750Z,99731.63
2022-12-03T03:33:39.506Z,99734.44
2022-12-03T03:43:40.965Z,99722.50
2022-12-03T03:53:45.034Z,99729.84
2022-12-03T04:03:46.524Z,99720.75
2022-12-03T04:13:48.136Z,99711.81
2022-12-03T04:23:49.550Z,99710.59
2022-12-03T04:34:09.687Z,99714.91
2022-12-03T04:44:29.625Z,99705.81
2022-12-03T04:54:31.013Z,99699.72
2022-12-03T05:04:32.430Z,99688.66
2022-12-03T05:14:33.827Z,99680.09
2022-12-03T05:24:35.228Z,99693.56
2022-12-03T05:34:36.602Z,99696.47
2022-12-03T05:44:37.989Z,99689.41
2022-12-03T05:54:39.529Z,99690.00
2022-12-03T06:04:40.919Z,99693.16
2022-12-03T06:14:42.455Z,99689.53
2022-12-03T06:24:43.825Z,99685.47
2022-12-03T06:34:45.240Z,99681.25
2022-12-03T06:44:46.634Z,99682.72
2022-12-03T06:54:48.039Z,99680.50
2022-12-03T07:04:49.498Z,99679.41
2022-12-03T07:14:51.440Z,99682.75
2022-12-03T07:24:53.470Z,99683.03
2022-12-03T07:34:55.313Z,99672.09
2022-12-03T07:44:56.935Z,99678.59
2022-12-03T07:54:58.332Z,99687.78
2022-12-03T08:04:59.711Z,99678.31
2022-12-03T08:15:01.092Z,99685.34
2022-12-03T08:25:02.630Z,99693.84
2022-12-03T08:35:10.831Z,99693.31
2022-12-03T08:45:40.073Z,99684.91
2022-12-03T08:55:45.737Z,99690.59
2022-12-03T09:05:47.155Z,99688.81
2022-12-03T09:15:48.571Z,99684.72
2022-12-03T09:25:49.937Z,99678.34
2022-12-03T09:35:51.383Z,99688.25
2022-12-03T09:45:52.961Z,99680.47
2022-12-03T09:55:54.565Z,99678.06
2022-12-03T10:05:56.001Z,99661.09
2022-12-03T10:15:58.720Z,99650.63
2022-12-03T10:26:04.841Z,99640.69
2022-12-03T10:36:20.594Z,99626.63
2022-12-03T10:46:22.352Z,99614.25
2022-12-03T10:56:25.543Z,99603.94
2022-12-03T11:06:27.078Z,99601.91
2022-12-03T11:16:51.725Z,99594.47
2022-12-03T11:26:53.005Z,99581.69
2022-12-03T11:37:09.311Z,99572.41
2022-12-03T11:47:13.937Z,99564.41
2022-12-03T11:57:25.281Z,99553.28
2022-12-03T12:07:36.603Z,99546.44
2022-12-03T12:17:38.476Z,99536.97
2022-12-03T12:27:49.225Z,99521.84
2022-12-03T12:37:59.615Z,99517.97
2022-12-03T12:48:09.743Z,99506.16
2022-12-03T12:58:19.092Z,99500.63
2022-12-03T13:08:37.672Z,99498.38
2022-12-03T13:18:55.304Z,99483.41
2022-12-03T13:28:57.256Z,99478.75
2022-12-03T13:38:58.653Z,99467.06
2022-12-03T13:49:01.897Z,99469.84
2022-12-03T13:59:04.262Z,99452.59
2022-12-03T14:09:05.748Z,99449.75
2022-12-03T14:19:07.478Z,99451.25
2022-12-03T14:29:09.206Z,99449.91
2022-12-03T14:39:10.705Z,99449.56
2022-12-03T14:49:12.763Z,99448.63
2022-12-03T14:59:14.134Z,99452.84
2022-12-03T15:09:15.591Z,99448.97
2022-12-03T15:19:17.122Z,99444.06
2022-12-03T15:29:19.313Z,99457.56
2022-12-03T15:39:20.682Z,99447.28
2022-12-03T15:49:22.143Z,99437.47
2022-12-03T15:59:23.521Z,99443.94
2022-12-03T16:09:27.370Z,99451.25
2022-12-03T16:19:29.093Z,99456.69
2022-12-03T16:29:30.566Z,99460.06
2022-12-03T16:39:32.133Z,99455.16
2022-12-03T16:49:33.512Z,99448.84
2022-12-03T16:59:34.918Z,99451.41
2022-12-03T17:09:36.307Z,99437.91
2022-12-03T17:19:37.696Z,99444.66
2022-12-03T17:29:39.360Z,99439.84
2022-12-03T17:39:40.743Z,99431.88
2022-12-03T17:49:42.127Z,99419.84
2022-12-03T17:59:43.519Z,99426.94
2022-12-03T18:09:44.889Z,99416.78
2022-12-03T18:19:46.266Z,99418.63
2022-12-03T18:29:47.751Z,99404.59
2022-12-03T18:39:49.145Z,99403.50
2022-12-03T18:49:50.539Z,99397.84
2022-12-03T18:59:52.130Z,99390.53
2022-12-03T19:09:53.863Z,99382.38
2022-12-03T19:19:55.834Z,99382.25
2022-12-03T19:29:58.009Z,99397.81
2022-12-03T19:39:59.824Z,99400.16
2022-12-03T19:50:01.376Z,99402.38
2022-12-03T20:00:03.522Z,99402.91
2022-12-03T20:10:05.724Z,99404.44
2022-12-03T20:20:07.658Z,99404.81
2022-12-03T20:30:09.422Z,99390.78
2022-12-03T20:40:11.327Z,99396.47
2022-12-03T20:50:12.703Z,99383.03
2022-12-03T21:00:14.514Z,99378.84
2022-12-03T21:10:34.626Z,99377.03
2022-12-03T21:20:42.699Z,99368.19
2022-12-03T21:30:44.093Z,99365.53
2022-12-03T21:40:45.697Z,99365.91
2022-12-03T21:50:56.774Z,99362.97
2022-12-03T22:00:58.236Z,99366.03
2022-12-03T22:11:04.183Z,99363.72
2022-12-03T22:21:06.273Z,99350.13
2022-12-03T22:31:07.966Z,99343.03
2022-12-03T22:41:10.507Z,99331.38
2022-12-03T22:51:15.301Z,99317.94
2022-12-03T23:01:30.315Z,99328.06
2022-12-03T23:11:31.762Z,99322.41
2022-12-03T23:21:34.127Z,99325.53
2022-12-03T23:31:36.076Z,99314.56
2022-12-03T23:41:37.525Z,99322.69
2022-12-03T23:51:39.063Z,99319.25
